createdAt,value
2018-08-28T00:01:22.157Z,3.93
2018-08-28T00:03:50.733Z,5.93
2018-08-28T00:06:19.053Z,3.30
2018-08-28T00:08:47.364Z,3.50
2018-08-28T00:11:15.682Z,3.53
2018-08-28T00:13:43.976Z,3.60
2018-08-28T00:16:12.288Z,3.67
2018-08-28T00:18:40.600Z,3.37
2018-08-28T00:21:08.924Z,3.90
2018-08-28T00:23:37.225Z,6.57
2018-08-28T00:26:05.548Z,4.40
2018-08-28T00:28:33.844Z,2.43
2018-08-28T00:31:02.168Z,2.50
2018-08-28T00:33:30.468Z,3.23
2018-08-28T00:35:58.788Z,3.30
2018-08-28T00:38:27.100Z,7.57
2018-08-28T00:40:55.430Z,3.50
2018-08-28T00:43:23.737Z,3.20
2018-08-28T00:45:52.080Z,3.40
2018-08-28T00:48:20.566Z,4.93
2018-08-28T00:50:48.881Z,3.20
2018-08-28T00:53:17.186Z,4.80
2018-08-28T00:55:45.507Z,4.67
2018-08-28T00:58:13.804Z,3.00
2018-08-28T01:00:42.144Z,5.67
2018-08-28T01:03:10.449Z,7.23
2018-08-28T01:05:38.796Z,4.20
2018-08-28T01:08:07.092Z,6.53
2018-08-28T01:10:35.419Z,4.73
2018-08-28T01:13:03.724Z,2.40
2018-08-28T01:15:32.049Z,2.60
2018-08-28T01:18:00.348Z,3.93
2018-08-28T01:20:28.653Z,4.63
2018-08-28T01:22:56.972Z,7.77
2018-08-28T01:25:25.297Z,3.90
2018-08-28T01:27:53.651Z,5.17
2018-08-28T01:30:27.456Z,9.93
2018-08-28T01:32:55.775Z,5.10
2018-08-28T01:35:24.092Z,4.00
2018-08-28T01:37:52.412Z,2.90
2018-08-28T01:40:20.716Z,3.83
2018-08-28T01:42:49.028Z,3.73
2018-08-28T01:45:17.317Z,7.20
2018-08-28T01:47:45.637Z,4.27
2018-08-28T01:50:13.948Z,3.50
2018-08-28T01:52:42.273Z,7.23
2018-08-28T01:55:10.576Z,3.63
2018-08-28T01:57:38.899Z,4.03
2018-08-28T02:00:07.610Z,4.23
2018-08-28T02:02:36.076Z,3.70
2018-08-28T02:05:04.437Z,3.03
2018-08-28T02:07:32.748Z,3.30
2018-08-28T02:10:01.068Z,4.10
2018-08-28T02:12:29.393Z,4.47
2018-08-28T02:14:57.687Z,3.50
2018-08-28T02:17:26.172Z,6.53
2018-08-28T02:19:54.464Z,4.30
2018-08-28T02:22:22.785Z,2.60
2018-08-28T02:24:51.093Z,4.07
2018-08-28T02:27:19.413Z,5.07
2018-08-28T02:29:47.708Z,5.20
2018-08-28T02:32:16.091Z,3.47
2018-08-28T02:34:44.384Z,5.63
2018-08-28T02:37:13.064Z,4.73
2018-08-28T02:39:41.359Z,5.97
2018-08-28T02:42:09.680Z,5.37
2018-08-28T02:44:37.984Z,3.63
2018-08-28T02:47:06.705Z,3.87
2018-08-28T02:49:35.004Z,2.83
2018-08-28T02:52:03.712Z,2.20
2018-08-28T02:54:32.019Z,5.10
2018-08-28T02:57:00.350Z,4.60
2018-08-28T02:59:28.641Z,3.77
2018-08-28T03:01:56.996Z,5.03
2018-08-28T03:04:25.296Z,3.60
2018-08-28T03:06:53.614Z,3.70
2018-08-28T03:09:21.913Z,6.60
2018-08-28T03:11:50.311Z,5.17
2018-08-28T03:14:18.615Z,5.73
2018-08-28T03:16:46.943Z,4.10
2018-08-28T03:19:15.240Z,5.73
2018-08-28T03:21:43.564Z,6.40
2018-08-28T03:24:11.860Z,8.10
2018-08-28T03:26:40.192Z,16.80
2018-08-28T03:29:08.514Z,9.50
2018-08-28T03:31:36.886Z,6.60
2018-08-28T03:34:05.310Z,16.10
2018-08-28T03:36:33.800Z,10.70
2018-08-28T03:39:02.222Z,5.07
2018-08-28T03:41:30.584Z,18.03
2018-08-28T03:43:59.009Z,5.10
2018-08-28T03:46:27.320Z,10.43
2018-08-28T03:48:55.700Z,12.37
2018-08-28T03:51:24.008Z,11.43
2018-08-28T03:53:52.330Z,9.67
2018-08-28T03:56:20.627Z,11.30
2018-08-28T03:58:49.094Z,16.50
2018-08-28T04:01:17.389Z,12.13
2018-08-28T04:03:45.782Z,17.97
2018-08-28T04:06:14.097Z,17.47
2018-08-28T04:08:42.420Z,11.77
2018-08-28T04:11:10.720Z,11.10
2018-08-28T04:13:39.036Z,8.70
2018-08-28T04:16:07.336Z,10.23
2018-08-28T04:18:35.651Z,16.73
2018-08-28T04:21:04.183Z,18.30
2018-08-28T04:23:32.504Z,9.90
2018-08-28T04:26:00.839Z,13.50
2018-08-28T04:28:29.228Z,10.60
2018-08-28T04:30:57.633Z,14.30
2018-08-28T04:33:25.895Z,13.27
2018-08-28T04:35:54.213Z,10.70
2018-08-28T04:38:22.742Z,11.77
2018-08-28T04:40:51.053Z,12.60
2018-08-28T04:43:19.368Z,11.20
2018-08-28T04:45:47.680Z,16.17
2018-08-28T04:48:16.012Z,12.77
2018-08-28T04:50:44.312Z,11.20
2018-08-28T04:53:12.630Z,10.37
2018-08-28T04:55:40.935Z,13.00
2018-08-28T04:58:09.264Z,10.40
2018-08-28T05:00:37.614Z,12.43
2018-08-28T05:03:05.937Z,10.57
2018-08-28T05:05:34.251Z,10.80
2018-08-28T05:08:02.569Z,9.47
2018-08-28T05:10:30.872Z,9.27
2018-08-28T05:12:59.219Z,9.40
2018-08-28T05:15:27.520Z,10.80
2018-08-28T05:17:55.852Z,10.13
2018-08-28T05:20:24.155Z,9.70
2018-08-28T05:22:52.478Z,10.17
2018-08-28T05:25:20.767Z,10.00
2018-08-28T05:27:49.264Z,11.53
2018-08-28T05:30:17.724Z,8.37
2018-08-28T05:32:46.068Z,11.17
2018-08-28T05:35:14.371Z,10.70
2018-08-28T05:37:42.693Z,9.17
2018-08-28T05:40:10.998Z,10.77
2018-08-28T05:42:39.312Z,10.03
2018-08-28T05:45:07.720Z,9.37
2018-08-28T05:47:36.377Z,15.40
2018-08-28T05:50:04.841Z,11.07
2018-08-28T05:52:33.145Z,10.03
2018-08-28T05:55:01.461Z,9.33
2018-08-28T05:57:29.765Z,10.47
2018-08-28T05:59:58.083Z,8.40
2018-08-28T06:02:26.401Z,9.93
2018-08-28T06:04:54.739Z,7.43
2018-08-28T06:07:23.036Z,9.07
2018-08-28T06:09:51.344Z,8.60
2018-08-28T06:12:19.688Z,11.87
2018-08-28T06:14:48.111Z,11.70
2018-08-28T06:17:16.357Z,14.40
2018-08-28T06:19:44.677Z,18.40
2018-08-28T06:22:12.972Z,8.70
2018-08-28T06:24:41.304Z,11.40
2018-08-28T06:27:09.604Z,11.37
2018-08-28T06:29:38.224Z,9.73
2018-08-28T06:32:06.532Z,9.40
2018-08-28T06:34:34.893Z,10.10
2018-08-28T06:37:03.190Z,9.50
2018-08-28T06:39:31.785Z,9.90
2018-08-28T06:42:00.196Z,10.43
2018-08-28T06:44:28.610Z,11.70
2018-08-28T06:46:56.900Z,9.13
2018-08-28T06:49:25.247Z,8.07
2018-08-28T06:51:53.566Z,8.77
2018-08-28T06:54:21.884Z,8.47
2018-08-28T06:56:50.244Z,11.80
2018-08-28T06:59:18.540Z,19.00
2018-08-28T07:01:46.836Z,14.90
2018-08-28T07:04:15.164Z,9.13
2018-08-28T07:06:43.461Z,22.37
2018-08-28T07:09:11.784Z,16.57
2018-08-28T07:11:40.080Z,19.03
2018-08-28T07:14:08.497Z,15.23
2018-08-28T07:16:36.801Z,22.00
2018-08-28T07:19:05.116Z,21.90
2018-08-28T07:21:33.424Z,13.60
2018-08-28T07:24:01.827Z,21.30
2018-08-28T07:26:30.133Z,19.47
2018-08-28T07:28:58.460Z,17.13
2018-08-28T07:31:26.869Z,17.37
2018-08-28T07:33:55.185Z,22.03
2018-08-28T07:36:23.500Z,17.77
2018-08-28T07:38:51.816Z,12.93
2018-08-28T07:41:20.148Z,13.03
2018-08-28T07:43:48.476Z,11.00
2018-08-28T07:46:16.788Z,14.90
2018-08-28T07:48:45.133Z,16.67
2018-08-28T07:51:13.428Z,19.30
2018-08-28T07:53:41.750Z,20.80
2018-08-28T07:56:10.368Z,22.80
2018-08-28T07:58:38.707Z,29.27
2018-08-28T08:01:07.000Z,23.93
2018-08-28T08:03:35.308Z,17.40
2018-08-28T08:06:03.640Z,17.87
2018-08-28T08:08:31.945Z,17.57
2018-08-28T08:11:00.269Z,18.50
2018-08-28T08:13:28.567Z,20.57
2018-08-28T08:15:56.894Z,20.07
2018-08-28T08:18:25.217Z,20.80
2018-08-28T08:20:53.532Z,12.63
2018-08-28T08:23:22.104Z,16.20
2018-08-28T08:25:50.421Z,18.20
2018-08-28T08:28:18.761Z,17.83
2018-08-28T08:30:47.073Z,20.70
2018-08-28T08:33:15.369Z,21.40
2018-08-28T08:35:43.680Z,24.60
2018-08-28T08:38:11.992Z,24.03
2018-08-28T08:40:40.313Z,23.23
2018-08-28T08:43:08.617Z,17.73
2018-08-28T08:45:36.940Z,20.70
2018-08-28T08:48:05.251Z,24.63
2018-08-28T08:50:33.578Z,28.43
2018-08-28T08:53:01.895Z,26.20
2018-08-28T08:55:30.212Z,26.27
2018-08-28T08:57:58.516Z,21.00
2018-08-28T09:00:26.840Z,28.93
2018-08-28T09:02:55.152Z,26.00
2018-08-28T09:05:23.501Z,23.37
2018-08-28T09:07:51.812Z,29.47
2018-08-28T09:10:20.132Z,23.57
2018-08-28T09:12:48.972Z,26.60
2018-08-28T09:15:17.408Z,24.77
2018-08-28T09:17:45.704Z,21.40
2018-08-28T09:20:14.028Z,28.37
2018-08-28T09:22:42.347Z,24.40
2018-08-28T09:25:10.672Z,24.53
2018-08-28T09:27:38.972Z,27.60
2018-08-28T09:30:08.027Z,29.73
2018-08-28T09:32:36.334Z,22.47
2018-08-28T09:35:04.860Z,20.33
2018-08-28T09:37:33.163Z,22.50
2018-08-28T09:40:01.484Z,16.50
2018-08-28T09:42:29.792Z,25.23
2018-08-28T09:44:58.238Z,26.13
2018-08-28T09:47:26.660Z,19.53
2018-08-28T09:49:55.075Z,22.57
2018-08-28T09:52:23.377Z,15.83
2018-08-28T09:54:51.755Z,25.40
2018-08-28T09:57:20.076Z,26.47
2018-08-28T09:59:48.406Z,20.77
2018-08-28T10:02:16.735Z,20.10
2018-08-28T10:04:45.095Z,26.20
2018-08-28T10:07:13.424Z,18.20
2018-08-28T10:09:41.757Z,24.60
2018-08-28T10:12:10.073Z,32.37
2018-08-28T10:14:38.376Z,23.50
2018-08-28T10:17:06.693Z,21.20
2018-08-28T10:19:34.998Z,29.03
2018-08-28T10:22:03.327Z,21.03
2018-08-28T10:24:31.688Z,19.10
2018-08-28T10:27:00.027Z,20.77
2018-08-28T10:29:28.336Z,24.70
2018-08-28T10:31:56.656Z,21.00
2018-08-28T10:34:24.980Z,22.00
2018-08-28T10:36:53.292Z,21.77
2018-08-28T10:39:21.592Z,23.70
2018-08-28T10:41:49.917Z,20.57
2018-08-28T10:44:18.221Z,26.10
2018-08-28T10:46:46.616Z,24.67
2018-08-28T10:49:14.857Z,19.83
2018-08-28T10:51:43.180Z,25.77
2018-08-28T10:54:11.480Z,20.53
2018-08-28T10:56:39.835Z,25.23
2018-08-28T10:59:08.132Z,26.43
2018-08-28T11:01:36.453Z,21.73
2018-08-28T11:04:04.765Z,21.37
2018-08-28T11:06:33.088Z,21.53
2018-08-28T11:09:01.387Z,17.13
2018-08-28T11:11:29.700Z,21.27
2018-08-28T11:13:58.013Z,25.10
2018-08-28T11:16:26.341Z,19.93
2018-08-28T11:18:54.744Z,17.50
2018-08-28T11:21:23.064Z,18.20
2018-08-28T11:23:51.364Z,17.10
2018-08-28T11:26:19.713Z,19.93
2018-08-28T11:28:48.014Z,17.40
2018-08-28T11:31:16.407Z,23.43
2018-08-28T11:33:44.664Z,22.70
2018-08-28T11:36:12.980Z,21.93
2018-08-28T11:38:41.321Z,20.30
2018-08-28T11:41:09.661Z,17.87
2018-08-28T11:43:37.968Z,16.77
2018-08-28T11:46:06.687Z,27.60
2018-08-28T11:48:34.980Z,14.23
2018-08-28T11:51:03.301Z,11.57
2018-08-28T11:53:31.609Z,12.97
2018-08-28T11:55:59.920Z,22.67
2018-08-28T11:58:28.216Z,18.00
2018-08-28T12:00:56.536Z,16.67
2018-08-28T12:03:24.944Z,16.00
2018-08-28T12:05:53.277Z,17.33
2018-08-28T12:08:21.589Z,17.10
2018-08-28T12:10:49.909Z,25.97
2018-08-28T12:13:18.210Z,17.83
2018-08-28T12:15:46.533Z,24.97
2018-08-28T12:18:14.837Z,20.03
2018-08-28T12:20:43.217Z,16.43
2018-08-28T12:23:11.472Z,20.87
2018-08-28T12:25:39.772Z,17.50
2018-08-28T12:28:08.096Z,20.60
2018-08-28T12:30:36.397Z,16.13
2018-08-28T12:33:04.716Z,20.40
2018-08-28T12:35:33.027Z,15.27
2018-08-28T12:38:01.360Z,23.03
2018-08-28T12:40:29.656Z,21.50
2018-08-28T12:42:57.971Z,19.93
2018-08-28T12:45:26.273Z,17.93
2018-08-28T12:47:54.592Z,20.33
2018-08-28T12:50:22.920Z,21.40
2018-08-28T12:52:51.244Z,19.90
2018-08-28T12:55:19.541Z,21.43
2018-08-28T12:57:47.860Z,16.67
2018-08-28T13:00:16.169Z,24.80
2018-08-28T13:02:44.492Z,32.70
2018-08-28T13:05:12.821Z,21.30
2018-08-28T13:07:41.139Z,24.33
2018-08-28T13:10:09.436Z,18.80
2018-08-28T13:12:37.772Z,16.13
2018-08-28T13:15:06.277Z,18.57
2018-08-28T13:17:34.589Z,19.43
2018-08-28T13:20:02.908Z,20.50
2018-08-28T13:22:31.229Z,24.50
2018-08-28T13:24:59.632Z,20.33
2018-08-28T13:27:27.963Z,21.13
2018-08-28T13:29:56.260Z,25.97
2018-08-28T13:32:24.576Z,17.90
2018-08-28T13:34:52.893Z,16.27
2018-08-28T13:37:21.213Z,20.10
2018-08-28T13:39:49.517Z,21.03
2018-08-28T13:42:17.844Z,20.80
2018-08-28T13:44:46.148Z,15.00
2018-08-28T13:47:14.609Z,16.17
2018-08-28T13:49:42.901Z,17.93
2018-08-28T13:52:11.229Z,27.83
2018-08-28T13:54:39.589Z,14.90
2018-08-28T13:57:07.941Z,16.27
2018-08-28T13:59:36.248Z,19.90
2018-08-28T14:02:04.573Z,13.60
2018-08-28T14:04:32.884Z,15.30
2018-08-28T14:07:01.193Z,18.80
2018-08-28T14:09:29.499Z,17.77
2018-08-28T14:11:57.820Z,18.73
2018-08-28T14:14:26.176Z,20.37
2018-08-28T14:16:54.497Z,14.90
2018-08-28T14:19:22.796Z,22.53
2018-08-28T14:21:51.128Z,17.60
2018-08-28T14:24:19.424Z,23.90
2018-08-28T14:26:47.744Z,24.10
2018-08-28T14:29:16.138Z,21.80
2018-08-28T14:31:44.408Z,23.07
2018-08-28T14:34:12.704Z,18.53
2018-08-28T14:36:41.024Z,17.73
2018-08-28T14:39:09.352Z,20.10
2018-08-28T14:41:37.663Z,15.50
2018-08-28T14:44:06.020Z,19.53
2018-08-28T14:46:34.345Z,18.40
2018-08-28T14:49:02.816Z,18.33
2018-08-28T14:51:31.126Z,19.13
2018-08-28T14:53:59.484Z,21.60
2018-08-28T14:56:27.823Z,17.20
2018-08-28T14:58:56.285Z,18.00
2018-08-28T15:01:24.609Z,17.20
2018-08-28T15:03:52.967Z,18.67
2018-08-28T15:06:21.492Z,24.20
2018-08-28T15:08:49.829Z,20.10
2018-08-28T15:11:18.317Z,25.93
2018-08-28T15:13:46.672Z,13.53
2018-08-28T15:16:14.982Z,18.90
2018-08-28T15:18:43.320Z,18.60
2018-08-28T15:21:11.620Z,24.53
2018-08-28T15:23:39.965Z,17.40
2018-08-28T15:26:08.261Z,15.60
2018-08-28T15:28:36.619Z,14.50
2018-08-28T15:31:05.288Z,18.67
2018-08-28T15:33:33.616Z,16.13
2018-08-28T15:36:01.945Z,16.77
2018-08-28T15:38:30.295Z,17.47
2018-08-28T15:40:58.612Z,13.80
2018-08-28T15:43:26.971Z,17.20
2018-08-28T15:45:55.268Z,17.03
2018-08-28T15:48:23.592Z,14.50
2018-08-28T15:50:51.900Z,14.53
2018-08-28T15:53:20.212Z,15.00
2018-08-28T15:55:48.512Z,16.43
2018-08-28T15:58:16.875Z,16.47
2018-08-28T16:00:45.177Z,15.57
2018-08-28T16:03:13.514Z,16.20
2018-08-28T16:05:41.836Z,15.87
2018-08-28T16:08:10.167Z,15.87
2018-08-28T16:10:38.468Z,16.10
2018-08-28T16:13:06.792Z,14.87
2018-08-28T16:15:35.118Z,16.27
2018-08-28T16:18:03.477Z,14.60
2018-08-28T16:20:31.792Z,23.83
2018-08-28T16:23:02.584Z,19.70
2018-08-28T16:25:31.255Z,17.97
2018-08-28T16:27:59.586Z,17.63
2018-08-28T16:30:27.892Z,21.47
2018-08-28T16:32:56.204Z,15.17
2018-08-28T16:35:24.537Z,18.27
2018-08-28T16:37:52.881Z,21.53
2018-08-28T16:40:21.220Z,14.60
2018-08-28T16:42:49.561Z,25.43
2018-08-28T16:45:17.880Z,29.17
2018-08-28T16:47:46.201Z,14.50
2018-08-28T16:50:14.564Z,16.30
2018-08-28T16:52:42.860Z,18.27
2018-08-28T16:55:11.184Z,14.97
2018-08-28T16:57:39.580Z,17.07
2018-08-28T17:00:07.900Z,16.40
2018-08-28T17:02:36.324Z,13.17
2018-08-28T17:05:04.677Z,29.80
2018-08-28T17:07:32.988Z,16.43
2018-08-28T17:10:01.309Z,14.37
2018-08-28T17:12:29.646Z,13.00
2018-08-28T17:14:58.029Z,15.93
2018-08-28T17:17:26.312Z,13.83
2018-08-28T17:19:54.628Z,16.10
2018-08-28T17:22:22.936Z,16.97
2018-08-28T17:24:51.285Z,15.00
2018-08-28T17:27:19.594Z,14.20
2018-08-28T17:29:47.917Z,16.03
2018-08-28T17:32:16.220Z,12.10
2018-08-28T17:34:44.542Z,15.90
2018-08-28T17:37:12.958Z,12.57
2018-08-28T17:39:41.284Z,12.83
2018-08-28T17:42:09.625Z,15.80
2018-08-28T17:44:37.947Z,11.90
2018-08-28T17:47:06.288Z,16.23
2018-08-28T17:49:35.419Z,12.90
2018-08-28T17:52:03.723Z,12.83
2018-08-28T17:54:32.054Z,13.17
2018-08-28T17:57:00.419Z,17.83
2018-08-28T17:59:28.724Z,15.67
2018-08-28T18:01:57.021Z,17.17
2018-08-28T18:04:25.368Z,12.73
2018-08-28T18:06:53.668Z,14.53
2018-08-28T18:09:21.992Z,12.70
2018-08-28T18:11:50.296Z,14.43
2018-08-28T18:14:18.613Z,15.77
2018-08-28T18:16:46.916Z,13.80
2018-08-28T18:19:15.244Z,15.43
2018-08-28T18:21:43.566Z,13.47
2018-08-28T18:24:12.086Z,16.17
2018-08-28T18:26:40.393Z,17.93
2018-08-28T18:29:08.829Z,13.33
2018-08-28T18:31:37.129Z,15.17
2018-08-28T18:34:05.601Z,14.70
2018-08-28T18:36:33.973Z,16.87
2018-08-28T18:39:02.331Z,15.07
2018-08-28T18:41:30.739Z,18.63
2018-08-28T18:43:59.030Z,14.10
2018-08-28T18:46:27.385Z,12.33
2018-08-28T18:48:55.704Z,17.57
2018-08-28T18:51:24.021Z,14.93
2018-08-28T18:53:52.355Z,16.10
2018-08-28T18:56:21.553Z,18.10
2018-08-28T18:58:49.916Z,15.40
2018-08-28T19:01:18.226Z,15.50
2018-08-28T19:03:46.548Z,14.13
2018-08-28T19:06:14.884Z,14.57
2018-08-28T19:08:43.243Z,14.60
2018-08-28T19:11:11.536Z,17.07
2018-08-28T19:13:39.855Z,13.40
2018-08-28T19:16:08.180Z,14.80
2018-08-28T19:18:36.479Z,17.43
2018-08-28T19:21:04.825Z,14.50
2018-08-28T19:23:33.145Z,15.73
2018-08-28T19:26:01.539Z,19.13
2018-08-28T19:28:29.833Z,20.93
2018-08-28T19:30:58.167Z,15.93
2018-08-28T19:33:26.459Z,16.60
2018-08-28T19:35:54.782Z,14.80
2018-08-28T19:38:23.210Z,19.50
2018-08-28T19:40:51.527Z,17.33
2018-08-28T19:43:19.841Z,16.53
2018-08-28T19:45:48.177Z,17.17
2018-08-28T19:48:16.494Z,14.83
2018-08-28T19:50:44.819Z,20.60
2018-08-28T19:53:13.141Z,14.87
2018-08-28T19:55:41.485Z,17.43
2018-08-28T19:58:09.786Z,14.53
2018-08-28T20:00:38.112Z,16.07
2018-08-28T20:03:06.420Z,15.93
2018-08-28T20:05:34.819Z,19.40
2018-08-28T20:08:03.548Z,16.27
2018-08-28T20:10:31.869Z,16.57
2018-08-28T20:13:00.265Z,17.63
2018-08-28T20:15:28.584Z,20.70
2018-08-28T20:17:56.899Z,13.97
2018-08-28T20:20:25.220Z,20.57
2018-08-28T20:22:53.525Z,21.37
2018-08-28T20:25:21.836Z,18.73
2018-08-28T20:27:50.145Z,18.40
2018-08-28T20:30:18.477Z,20.30
2018-08-28T20:32:46.847Z,19.53
2018-08-28T20:35:15.166Z,17.93
2018-08-28T20:37:43.465Z,21.27
2018-08-28T20:40:11.837Z,19.83
2018-08-28T20:42:40.148Z,22.80
2018-08-28T20:45:08.650Z,18.07
2018-08-28T20:47:36.957Z,19.63
2018-08-28T20:50:05.699Z,17.90
2018-08-28T20:52:34.008Z,16.23
2018-08-28T20:55:02.333Z,20.63
2018-08-28T20:57:30.645Z,15.73
2018-08-28T20:59:58.968Z,15.83
2018-08-28T21:02:27.272Z,16.60
2018-08-28T21:04:55.620Z,18.37
2018-08-28T21:07:23.928Z,20.80
2018-08-28T21:09:52.268Z,18.37
2018-08-28T21:12:20.576Z,17.77
2018-08-28T21:14:48.876Z,14.93
2018-08-28T21:17:17.204Z,19.37
2018-08-28T21:19:45.508Z,14.97
2018-08-28T21:22:13.827Z,16.33
2018-08-28T21:24:42.126Z,17.07
2018-08-28T21:27:10.456Z,26.27
2018-08-28T21:29:38.760Z,15.13
2018-08-28T21:32:07.092Z,20.00
2018-08-28T21:34:35.408Z,16.40
2018-08-28T21:37:03.729Z,13.60
2018-08-28T21:39:32.036Z,17.30
2018-08-28T21:42:00.371Z,19.33
2018-08-28T21:44:28.705Z,18.50
2018-08-28T21:46:57.025Z,14.80
2018-08-28T21:49:25.324Z,17.80
2018-08-28T21:51:53.643Z,17.80
2018-08-28T21:54:21.956Z,20.03
2018-08-28T21:56:50.284Z,20.57
2018-08-28T21:59:18.586Z,17.77
2018-08-28T22:01:46.908Z,20.30
2018-08-28T22:04:15.228Z,18.33
2018-08-28T22:06:49.090Z,15.60
2018-08-28T22:09:17.389Z,16.60
2018-08-28T22:11:45.705Z,22.10
2018-08-28T22:14:14.012Z,17.63
2018-08-28T22:16:42.340Z,14.53
2018-08-28T22:19:10.657Z,17.70
2018-08-28T22:21:38.976Z,18.43
2018-08-28T22:24:07.284Z,19.00
2018-08-28T22:26:35.604Z,19.50
2018-08-28T22:29:03.912Z,21.03
2018-08-28T22:31:32.227Z,19.83
2018-08-28T22:34:00.536Z,21.07
2018-08-28T22:36:28.861Z,16.23
2018-08-28T22:38:57.164Z,19.90
2018-08-28T22:41:25.490Z,19.80
2018-08-28T22:43:53.801Z,19.27
2018-08-28T22:46:22.132Z,18.10
2018-08-28T22:48:50.436Z,14.23
2018-08-28T22:51:18.760Z,14.57
2018-08-28T22:53:47.059Z,16.93
2018-08-28T22:56:15.378Z,17.30
2018-08-28T22:58:43.671Z,19.40
2018-08-28T23:01:11.985Z,17.07
2018-08-28T23:03:40.317Z,17.50
2018-08-28T23:06:08.649Z,21.47
2018-08-28T23:08:36.944Z,14.97
2018-08-28T23:11:05.355Z,12.43
2018-08-28T23:13:33.676Z,21.63
2018-08-28T23:16:02.143Z,18.80
2018-08-28T23:18:30.453Z,16.93
2018-08-28T23:20:58.772Z,15.93
2018-08-28T23:23:27.075Z,15.30
2018-08-28T23:25:55.400Z,19.97
2018-08-28T23:28:23.709Z,18.87
2018-08-28T23:30:52.040Z,16.50
2018-08-28T23:33:20.365Z,15.87
2018-08-28T23:35:48.676Z,17.23
2018-08-28T23:38:16.992Z,12.40
2018-08-28T23:40:45.304Z,16.03
2018-08-28T23:43:13.628Z,17.40
2018-08-28T23:45:41.931Z,16.90
2018-08-28T23:48:10.256Z,16.10
2018-08-28T23:50:38.568Z,22.23
2018-08-28T23:53:06.936Z,15.30
2018-08-28T23:55:35.272Z,15.50
2018-08-28T23:58:03.617Z,16.17
